sensor_id;sensor_type;location;lat;lon;timestamp;P1;durP1;ratioP1;P2;durP2;ratioP2
68821;SDS011;55834;50.870;4.606;2024-01-27T00:00:17;14.32;;;7.30;;
68821;SDS011;55834;50.870;4.606;2024-01-27T00:02:43;17.73;;;7.97;;
68821;SDS011;55834;50.870;4.606;2024-01-27T00:05:08;10.57;;;7.03;;
68821;SDS011;55834;50.870;4.606;2024-01-27T00:07:34;14.35;;;6.15;;
68821;SDS011;55834;50.870;4.606;2024-01-27T00:09:59;19.95;;;9.15;;
68821;SDS011;55834;50.870;4.606;2024-01-27T00:12:25;26.23;;;11.35;;
68821;SDS011;55834;50.870;4.606;2024-01-27T00:14:51;18.42;;;8.13;;
68821;SDS011;55834;50.870;4.606;2024-01-27T00:17:16;14.47;;;6.47;;
68821;SDS011;55834;50.870;4.606;2024-01-27T00:19:42;19.33;;;8.48;;
68821;SDS011;55834;50.870;4.606;2024-01-27T00:22:07;15.23;;;8.02;;
68821;SDS011;55834;50.870;4.606;2024-01-27T00:24:33;19.02;;;6.97;;
68821;SDS011;55834;50.870;4.606;2024-01-27T00:26:59;12.40;;;5.90;;
68821;SDS011;55834;50.870;4.606;2024-01-27T00:29:25;18.92;;;7.40;;
68821;SDS011;55834;50.870;4.606;2024-01-27T00:31:51;26.80;;;11.73;;
68821;SDS011;55834;50.870;4.606;2024-01-27T00:34:16;19.35;;;8.88;;
68821;SDS011;55834;50.870;4.606;2024-01-27T00:36:42;19.33;;;8.10;;
68821;SDS011;55834;50.870;4.606;2024-01-27T00:39:14;22.60;;;10.13;;
68821;SDS011;55834;50.870;4.606;2024-01-27T00:41:40;17.30;;;8.25;;
68821;SDS011;55834;50.870;4.606;2024-01-27T00:44:05;15.35;;;6.57;;
68821;SDS011;55834;50.870;4.606;2024-01-27T00:46:30;14.53;;;6.13;;
68821;SDS011;55834;50.870;4.606;2024-01-27T00:48:56;15.80;;;7.53;;
68821;SDS011;55834;50.870;4.606;2024-01-27T00:51:21;20.80;;;8.57;;
68821;SDS011;55834;50.870;4.606;2024-01-27T00:53:47;16.23;;;7.57;;
68821;SDS011;55834;50.870;4.606;2024-01-27T00:56:12;19.53;;;7.30;;
68821;SDS011;55834;50.870;4.606;2024-01-27T00:58:37;13.57;;;6.17;;
68821;SDS011;55834;50.870;4.606;2024-01-27T01:01:03;14.03;;;6.00;;
68821;SDS011;55834;50.870;4.606;2024-01-27T01:03:28;11.15;;;5.63;;
68821;SDS011;55834;50.870;4.606;2024-01-27T01:05:54;12.55;;;5.90;;
68821;SDS011;55834;50.870;4.606;2024-01-27T01:08:19;12.37;;;6.30;;
68821;SDS011;55834;50.870;4.606;2024-01-27T01:10:45;13.97;;;5.47;;
68821;SDS011;55834;50.870;4.606;2024-01-27T01:13:10;8.55;;;3.40;;
68821;SDS011;55834;50.870;4.606;2024-01-27T01:15:36;9.32;;;6.13;;
68821;SDS011;55834;50.870;4.606;2024-01-27T01:18:01;16.02;;;5.63;;
68821;SDS011;55834;50.870;4.606;2024-01-27T01:20:27;7.38;;;4.50;;
68821;SDS011;55834;50.870;4.606;2024-01-27T01:22:53;11.27;;;4.13;;
68821;SDS011;55834;50.870;4.606;2024-01-27T01:25:18;13.88;;;6.22;;
68821;SDS011;55834;50.870;4.606;2024-01-27T01:27:44;8.82;;;4.60;;
68821;SDS011;55834;50.870;4.606;2024-01-27T01:30:11;11.55;;;5.18;;
68821;SDS011;55834;50.870;4.606;2024-01-27T01:32:36;13.48;;;6.05;;
68821;SDS011;55834;50.870;4.606;2024-01-27T01:35:02;9.45;;;4.35;;
68821;SDS011;55834;50.870;4.606;2024-01-27T01:37:28;12.52;;;5.60;;
68821;SDS011;55834;50.870;4.606;2024-01-27T01:39:54;11.50;;;4.80;;
68821;SDS011;55834;50.870;4.606;2024-01-27T01:42:19;15.53;;;6.87;;
68821;SDS011;55834;50.870;4.606;2024-01-27T01:44:48;9.52;;;5.03;;
68821;SDS011;55834;50.870;4.606;2024-01-27T01:47:13;9.82;;;4.90;;
68821;SDS011;55834;50.870;4.606;2024-01-27T01:49:39;11.70;;;4.60;;
68821;SDS011;55834;50.870;4.606;2024-01-27T01:52:05;8.98;;;4.55;;
68821;SDS011;55834;50.870;4.606;2024-01-27T01:54:31;11.75;;;5.32;;
68821;SDS011;55834;50.870;4.606;2024-01-27T01:56:57;7.90;;;5.28;;
68821;SDS011;55834;50.870;4.606;2024-01-27T01:59:24;9.70;;;3.95;;
68821;SDS011;55834;50.870;4.606;2024-01-27T02:01:49;7.32;;;4.30;;
68821;SDS011;55834;50.870;4.606;2024-01-27T02:04:15;8.82;;;3.97;;
68821;SDS011;55834;50.870;4.606;2024-01-27T02:06:40;10.75;;;4.22;;
68821;SDS011;55834;50.870;4.606;2024-01-27T02:09:05;8.13;;;4.45;;
68821;SDS011;55834;50.870;4.606;2024-01-27T02:11:32;10.52;;;4.93;;
68821;SDS011;55834;50.870;4.606;2024-01-27T02:13:57;13.90;;;5.85;;
68821;SDS011;55834;50.870;4.606;2024-01-27T02:16:22;14.83;;;6.53;;
68821;SDS011;55834;50.870;4.606;2024-01-27T02:18:48;11.38;;;5.78;;
68821;SDS011;55834;50.870;4.606;2024-01-27T02:21:13;10.10;;;5.90;;
68821;SDS011;55834;50.870;4.606;2024-01-27T02:23:39;10.13;;;4.30;;
68821;SDS011;55834;50.870;4.606;2024-01-27T02:26:04;11.83;;;5.10;;
68821;SDS011;55834;50.870;4.606;2024-01-27T02:28:30;13.40;;;5.18;;
68821;SDS011;55834;50.870;4.606;2024-01-27T02:30:58;11.98;;;5.03;;
68821;SDS011;55834;50.870;4.606;2024-01-27T02:33:27;11.85;;;5.47;;
68821;SDS011;55834;50.870;4.606;2024-01-27T02:35:53;15.43;;;5.38;;
68821;SDS011;55834;50.870;4.606;2024-01-27T02:38:18;12.40;;;6.93;;
68821;SDS011;55834;50.870;4.606;2024-01-27T02:40:44;13.13;;;4.30;;
68821;SDS011;55834;50.870;4.606;2024-01-27T02:43:09;12.57;;;6.13;;
68821;SDS011;55834;50.870;4.606;2024-01-27T02:45:35;14.93;;;6.43;;
68821;SDS011;55834;50.870;4.606;2024-01-27T02:48:00;14.40;;;6.20;;
68821;SDS011;55834;50.870;4.606;2024-01-27T02:50:25;15.23;;;8.10;;
68821;SDS011;55834;50.870;4.606;2024-01-27T02:52:51;14.23;;;5.70;;
68821;SDS011;55834;50.870;4.606;2024-01-27T02:55:16;10.32;;;5.15;;
68821;SDS011;55834;50.870;4.606;2024-01-27T02:57:42;13.48;;;5.78;;
68821;SDS011;55834;50.870;4.606;2024-01-27T03:00:07;14.17;;;5.87;;
68821;SDS011;55834;50.870;4.606;2024-01-27T03:02:33;11.60;;;4.90;;
68821;SDS011;55834;50.870;4.606;2024-01-27T03:04:59;12.57;;;4.47;;
68821;SDS011;55834;50.870;4.606;2024-01-27T03:07:25;14.25;;;5.80;;
68821;SDS011;55834;50.870;4.606;2024-01-27T03:09:50;10.33;;;4.90;;
68821;SDS011;55834;50.870;4.606;2024-01-27T03:12:16;13.70;;;5.80;;
68821;SDS011;55834;50.870;4.606;2024-01-27T03:14:43;20.55;;;11.02;;
68821;SDS011;55834;50.870;4.606;2024-01-27T03:17:08;24.27;;;9.93;;
68821;SDS011;55834;50.870;4.606;2024-01-27T03:19:34;11.73;;;6.57;;
68821;SDS011;55834;50.870;4.606;2024-01-27T03:21:59;11.55;;;6.65;;
68821;SDS011;55834;50.870;4.606;2024-01-27T03:24:25;14.35;;;5.68;;
68821;SDS011;55834;50.870;4.606;2024-01-27T03:26:50;17.50;;;6.75;;
68821;SDS011;55834;50.870;4.606;2024-01-27T03:29:15;10.37;;;6.20;;
68821;SDS011;55834;50.870;4.606;2024-01-27T03:31:41;11.73;;;5.90;;
68821;SDS011;55834;50.870;4.606;2024-01-27T03:34:07;12.70;;;5.47;;
68821;SDS011;55834;50.870;4.606;2024-01-27T03:36:32;13.63;;;6.17;;
68821;SDS011;55834;50.870;4.606;2024-01-27T03:38:58;12.52;;;5.55;;
68821;SDS011;55834;50.870;4.606;2024-01-27T03:41:24;6.97;;;5.00;;
68821;SDS011;55834;50.870;4.606;2024-01-27T03:43:49;10.88;;;4.93;;
68821;SDS011;55834;50.870;4.606;2024-01-27T03:46:15;8.00;;;4.88;;
68821;SDS011;55834;50.870;4.606;2024-01-27T03:48:40;16.23;;;8.93;;
68821;SDS011;55834;50.870;4.606;2024-01-27T03:51:06;73.13;;;36.42;;
68821;SDS011;55834;50.870;4.606;2024-01-27T03:53:31;64.75;;;28.88;;
68821;SDS011;55834;50.870;4.606;2024-01-27T03:55:57;37.97;;;19.25;;
68821;SDS011;55834;50.870;4.606;2024-01-27T03:58:31;17.77;;;7.55;;
68821;SDS011;55834;50.870;4.606;2024-01-27T04:00:57;17.35;;;7.45;;
68821;SDS011;55834;50.870;4.606;2024-01-27T04:03:23;16.58;;;6.20;;
68821;SDS011;55834;50.870;4.606;2024-01-27T04:05:48;12.10;;;5.90;;
68821;SDS011;55834;50.870;4.606;2024-01-27T04:08:13;16.57;;;6.73;;
68821;SDS011;55834;50.870;4.606;2024-01-27T04:10:39;10.97;;;5.50;;
68821;SDS011;55834;50.870;4.606;2024-01-27T04:13:04;12.10;;;5.60;;
68821;SDS011;55834;50.870;4.606;2024-01-27T04:15:32;11.88;;;5.57;;
68821;SDS011;55834;50.870;4.606;2024-01-27T04:18:03;11.82;;;5.25;;
68821;SDS011;55834;50.870;4.606;2024-01-27T04:20:36;13.23;;;5.32;;
68821;SDS011;55834;50.870;4.606;2024-01-27T04:23:01;10.73;;;4.65;;
68821;SDS011;55834;50.870;4.606;2024-01-27T04:25:27;12.23;;;4.20;;
68821;SDS011;55834;50.870;4.606;2024-01-27T04:27:53;13.82;;;6.45;;
68821;SDS011;55834;50.870;4.606;2024-01-27T04:30:18;21.67;;;8.03;;
68821;SDS011;55834;50.870;4.606;2024-01-27T04:32:44;22.25;;;9.70;;
68821;SDS011;55834;50.870;4.606;2024-01-27T04:35:09;33.63;;;11.63;;
68821;SDS011;55834;50.870;4.606;2024-01-27T04:37:36;20.70;;;9.85;;
68821;SDS011;55834;50.870;4.606;2024-01-27T04:40:03;14.48;;;7.22;;
68821;SDS011;55834;50.870;4.606;2024-01-27T04:42:29;12.05;;;5.70;;
68821;SDS011;55834;50.870;4.606;2024-01-27T04:44:55;16.10;;;6.93;;
68821;SDS011;55834;50.870;4.606;2024-01-27T04:47:23;18.15;;;7.93;;
68821;SDS011;55834;50.870;4.606;2024-01-27T04:49:48;13.97;;;6.07;;
68821;SDS011;55834;50.870;4.606;2024-01-27T04:52:13;14.23;;;6.07;;
68821;SDS011;55834;50.870;4.606;2024-01-27T04:54:39;12.10;;;5.60;;
68821;SDS011;55834;50.870;4.606;2024-01-27T04:57:04;16.80;;;6.87;;
68821;SDS011;55834;50.870;4.606;2024-01-27T04:59:30;14.95;;;7.18;;
68821;SDS011;55834;50.870;4.606;2024-01-27T05:01:55;14.70;;;6.97;;
68821;SDS011;55834;50.870;4.606;2024-01-27T05:04:21;18.00;;;7.10;;
68821;SDS011;55834;50.870;4.606;2024-01-27T05:06:46;16.52;;;7.32;;
68821;SDS011;55834;50.870;4.606;2024-01-27T05:09:11;10.83;;;6.40;;
68821;SDS011;55834;50.870;4.606;2024-01-27T05:11:37;12.75;;;5.55;;
68821;SDS011;55834;50.870;4.606;2024-01-27T05:14:02;8.63;;;5.15;;
68821;SDS011;55834;50.870;4.606;2024-01-27T05:16:28;11.88;;;5.57;;
68821;SDS011;55834;50.870;4.606;2024-01-27T05:18:53;12.32;;;5.95;;
68821;SDS011;55834;50.870;4.606;2024-01-27T05:21:19;14.10;;;4.93;;
68821;SDS011;55834;50.870;4.606;2024-01-27T05:23:44;11.27;;;7.05;;
68821;SDS011;55834;50.870;4.606;2024-01-27T05:26:10;8.97;;;5.70;;
68821;SDS011;55834;50.870;4.606;2024-01-27T05:28:39;11.85;;;5.13;;
68821;SDS011;55834;50.870;4.606;2024-01-27T05:31:08;13.00;;;5.25;;
68821;SDS011;55834;50.870;4.606;2024-01-27T05:33:37;9.85;;;4.53;;
68821;SDS011;55834;50.870;4.606;2024-01-27T05:36:04;13.23;;;4.22;;
68821;SDS011;55834;50.870;4.606;2024-01-27T05:38:30;15.35;;;5.20;;
68821;SDS011;55834;50.870;4.606;2024-01-27T05:40:57;13.35;;;5.90;;
68821;SDS011;55834;50.870;4.606;2024-01-27T05:43:25;12.07;;;5.68;;
68821;SDS011;55834;50.870;4.606;2024-01-27T05:45:50;9.30;;;5.50;;
68821;SDS011;55834;50.870;4.606;2024-01-27T05:48:16;11.97;;;6.97;;
68821;SDS011;55834;50.870;4.606;2024-01-27T05:50:42;13.57;;;5.90;;
68821;SDS011;55834;50.870;4.606;2024-01-27T05:53:08;14.10;;;5.30;;
68821;SDS011;55834;50.870;4.606;2024-01-27T05:55:34;7.82;;;3.83;;
68821;SDS011;55834;50.870;4.606;2024-01-27T05:57:59;11.13;;;4.70;;
68821;SDS011;55834;50.870;4.606;2024-01-27T06:00:25;9.17;;;4.03;;
68821;SDS011;55834;50.870;4.606;2024-01-27T06:02:50;10.60;;;4.80;;
68821;SDS011;55834;50.870;4.606;2024-01-27T06:05:16;14.48;;;6.35;;
68821;SDS011;55834;50.870;4.606;2024-01-27T06:07:42;14.03;;;4.83;;
68821;SDS011;55834;50.870;4.606;2024-01-27T06:10:10;11.73;;;4.95;;
68821;SDS011;55834;50.870;4.606;2024-01-27T06:12:37;8.18;;;4.63;;
68821;SDS011;55834;50.870;4.606;2024-01-27T06:15:03;11.32;;;5.95;;
68821;SDS011;55834;50.870;4.606;2024-01-27T06:17:29;13.38;;;5.55;;
68821;SDS011;55834;50.870;4.606;2024-01-27T06:19:54;10.77;;;6.80;;
68821;SDS011;55834;50.870;4.606;2024-01-27T06:22:20;12.25;;;5.30;;
68821;SDS011;55834;50.870;4.606;2024-01-27T06:24:45;16.10;;;7.40;;
68821;SDS011;55834;50.870;4.606;2024-01-27T06:27:11;15.67;;;8.93;;
68821;SDS011;55834;50.870;4.606;2024-01-27T06:29:36;12.63;;;6.10;;
68821;SDS011;55834;50.870;4.606;2024-01-27T06:32:02;12.50;;;5.53;;
68821;SDS011;55834;50.870;4.606;2024-01-27T06:34:28;13.32;;;6.32;;
68821;SDS011;55834;50.870;4.606;2024-01-27T06:36:53;16.30;;;6.90;;
68821;SDS011;55834;50.870;4.606;2024-01-27T06:39:19;13.33;;;6.50;;
68821;SDS011;55834;50.870;4.606;2024-01-27T06:41:46;12.35;;;6.15;;
68821;SDS011;55834;50.870;4.606;2024-01-27T06:44:11;10.75;;;5.53;;
68821;SDS011;55834;50.870;4.606;2024-01-27T06:46:37;11.05;;;5.90;;
68821;SDS011;55834;50.870;4.606;2024-01-27T06:49:02;16.57;;;6.07;;
68821;SDS011;55834;50.870;4.606;2024-01-27T06:51:28;17.10;;;6.57;;
68821;SDS011;55834;50.870;4.606;2024-01-27T06:53:53;12.38;;;5.30;;
68821;SDS011;55834;50.870;4.606;2024-01-27T06:56:18;12.90;;;6.77;;
68821;SDS011;55834;50.870;4.606;2024-01-27T06:58:44;16.47;;;7.63;;
68821;SDS011;55834;50.870;4.606;2024-01-27T07:01:09;14.30;;;6.47;;
68821;SDS011;55834;50.870;4.606;2024-01-27T07:03:35;14.13;;;5.65;;
68821;SDS011;55834;50.870;4.606;2024-01-27T07:06:00;13.80;;;5.67;;
68821;SDS011;55834;50.870;4.606;2024-01-27T07:08:28;10.55;;;5.20;;
68821;SDS011;55834;50.870;4.606;2024-01-27T07:10:54;11.05;;;6.13;;
68821;SDS011;55834;50.870;4.606;2024-01-27T07:13:20;10.43;;;5.47;;
68821;SDS011;55834;50.870;4.606;2024-01-27T07:15:45;9.23;;;5.07;;
68821;SDS011;55834;50.870;4.606;2024-01-27T07:18:11;10.27;;;5.47;;
68821;SDS011;55834;50.870;4.606;2024-01-27T07:20:36;10.50;;;5.65;;
68821;SDS011;55834;50.870;4.606;2024-01-27T07:23:02;9.55;;;4.53;;
68821;SDS011;55834;50.870;4.606;2024-01-27T07:25:27;16.35;;;5.93;;
68821;SDS011;55834;50.870;4.606;2024-01-27T07:27:54;10.52;;;5.22;;
68821;SDS011;55834;50.870;4.606;2024-01-27T07:30:20;13.02;;;5.75;;
68821;SDS011;55834;50.870;4.606;2024-01-27T07:32:45;18.02;;;7.82;;
68821;SDS011;55834;50.870;4.606;2024-01-27T07:35:11;12.60;;;7.03;;
68821;SDS011;55834;50.870;4.606;2024-01-27T07:37:36;10.70;;;4.97;;
68821;SDS011;55834;50.870;4.606;2024-01-27T07:40:02;14.18;;;7.15;;
68821;SDS011;55834;50.870;4.606;2024-01-27T07:42:27;15.52;;;6.65;;
68821;SDS011;55834;50.870;4.606;2024-01-27T07:44:53;12.17;;;6.00;;
68821;SDS011;55834;50.870;4.606;2024-01-27T07:47:18;13.52;;;7.18;;
68821;SDS011;55834;50.870;4.606;2024-01-27T07:49:44;22.17;;;9.80;;
68821;SDS011;55834;50.870;4.606;2024-01-27T07:52:09;12.00;;;5.97;;
68821;SDS011;55834;50.870;4.606;2024-01-27T07:54:35;10.77;;;5.25;;
68821;SDS011;55834;50.870;4.606;2024-01-27T07:57:04;8.95;;;4.32;;
68821;SDS011;55834;50.870;4.606;2024-01-27T07:59:30;10.90;;;6.30;;
68821;SDS011;55834;50.870;4.606;2024-01-27T08:01:56;8.18;;;4.13;;
68821;SDS011;55834;50.870;4.606;2024-01-27T08:04:21;7.85;;;3.70;;
68821;SDS011;55834;50.870;4.606;2024-01-27T08:06:47;6.70;;;4.50;;
68821;SDS011;55834;50.870;4.606;2024-01-27T08:09:14;6.80;;;3.70;;
68821;SDS011;55834;50.870;4.606;2024-01-27T08:11:40;9.98;;;4.57;;
68821;SDS011;55834;50.870;4.606;2024-01-27T08:14:05;9.93;;;3.83;;
68821;SDS011;55834;50.870;4.606;2024-01-27T08:16:31;7.87;;;5.17;;
68821;SDS011;55834;50.870;4.606;2024-01-27T08:18:56;8.67;;;4.07;;
68821;SDS011;55834;50.870;4.606;2024-01-27T08:21:22;6.40;;;3.57;;
68821;SDS011;55834;50.870;4.606;2024-01-27T08:23:47;10.18;;;3.28;;
68821;SDS011;55834;50.870;4.606;2024-01-27T08:26:13;7.25;;;3.90;;
68821;SDS011;55834;50.870;4.606;2024-01-27T08:28:39;8.32;;;4.18;;
68821;SDS011;55834;50.870;4.606;2024-01-27T08:31:04;10.20;;;6.07;;
68821;SDS011;55834;50.870;4.606;2024-01-27T08:33:30;7.68;;;4.32;;
68821;SDS011;55834;50.870;4.606;2024-01-27T08:35:56;6.63;;;3.35;;
68821;SDS011;55834;50.870;4.606;2024-01-27T08:38:21;7.20;;;3.67;;
68821;SDS011;55834;50.870;4.606;2024-01-27T08:40:47;10.52;;;3.60;;
68821;SDS011;55834;50.870;4.606;2024-01-27T08:43:12;10.30;;;3.20;;
68821;SDS011;55834;50.870;4.606;2024-01-27T08:45:38;5.27;;;3.23;;
68821;SDS011;55834;50.870;4.606;2024-01-27T08:48:04;12.77;;;4.82;;
68821;SDS011;55834;50.870;4.606;2024-01-27T08:50:30;9.85;;;3.67;;
68821;SDS011;55834;50.870;4.606;2024-01-27T08:52:55;5.33;;;2.60;;
68821;SDS011;55834;50.870;4.606;2024-01-27T08:55:20;9.83;;;3.93;;
68821;SDS011;55834;50.870;4.606;2024-01-27T08:57:49;10.43;;;4.32;;
68821;SDS011;55834;50.870;4.606;2024-01-27T09:00:14;11.73;;;4.10;;
68821;SDS011;55834;50.870;4.606;2024-01-27T09:02:41;8.82;;;3.78;;
68821;SDS011;55834;50.870;4.606;2024-01-27T09:05:10;7.95;;;4.38;;
68821;SDS011;55834;50.870;4.606;2024-01-27T09:07:35;6.87;;;2.80;;
68821;SDS011;55834;50.870;4.606;2024-01-27T09:10:01;9.07;;;3.97;;
68821;SDS011;55834;50.870;4.606;2024-01-27T09:12:27;6.95;;;3.42;;
68821;SDS011;55834;50.870;4.606;2024-01-27T09:14:52;8.23;;;3.67;;
68821;SDS011;55834;50.870;4.606;2024-01-27T09:17:19;7.45;;;3.55;;
68821;SDS011;55834;50.870;4.606;2024-01-27T09:19:45;13.80;;;6.80;;
68821;SDS011;55834;50.870;4.606;2024-01-27T09:22:11;20.45;;;8.65;;
68821;SDS011;55834;50.870;4.606;2024-01-27T09:24:36;16.42;;;6.07;;
68821;SDS011;55834;50.870;4.606;2024-01-27T09:27:01;5.63;;;3.80;;
68821;SDS011;55834;50.870;4.606;2024-01-27T09:29:28;6.22;;;4.32;;
68821;SDS011;55834;50.870;4.606;2024-01-27T09:31:54;6.85;;;4.55;;
68821;SDS011;55834;50.870;4.606;2024-01-27T09:34:19;7.88;;;3.55;;
68821;SDS011;55834;50.870;4.606;2024-01-27T09:36:45;6.35;;;3.85;;
68821;SDS011;55834;50.870;4.606;2024-01-27T09:39:10;9.00;;;5.67;;
68821;SDS011;55834;50.870;4.606;2024-01-27T09:41:35;14.27;;;5.27;;
68821;SDS011;55834;50.870;4.606;2024-01-27T09:44:03;12.18;;;4.55;;
68821;SDS011;55834;50.870;4.606;2024-01-27T09:46:29;13.10;;;3.75;;
68821;SDS011;55834;50.870;4.606;2024-01-27T09:48:56;8.13;;;3.45;;
68821;SDS011;55834;50.870;4.606;2024-01-27T09:51:22;13.00;;;5.60;;
68821;SDS011;55834;50.870;4.606;2024-01-27T09:53:48;10.55;;;5.35;;
68821;SDS011;55834;50.870;4.606;2024-01-27T09:56:16;15.73;;;5.78;;
68821;SDS011;55834;50.870;4.606;2024-01-27T10:01:16;19.08;;;7.40;;
68821;SDS011;55834;50.870;4.606;2024-01-27T10:03:45;12.55;;;6.45;;
68821;SDS011;55834;50.870;4.606;2024-01-27T10:06:11;13.13;;;5.63;;
68821;SDS011;55834;50.870;4.606;2024-01-27T10:08:36;23.75;;;10.73;;
68821;SDS011;55834;50.870;4.606;2024-01-27T10:11:09;18.00;;;8.18;;
68821;SDS011;55834;50.870;4.606;2024-01-27T10:13:37;28.58;;;11.80;;
68821;SDS011;55834;50.870;4.606;2024-01-27T10:16:05;11.23;;;5.97;;
68821;SDS011;55834;50.870;4.606;2024-01-27T10:18:32;9.65;;;5.03;;
68821;SDS011;55834;50.870;4.606;2024-01-27T10:20:58;6.50;;;3.13;;
68821;SDS011;55834;50.870;4.606;2024-01-27T10:23:24;9.70;;;5.10;;
68821;SDS011;55834;50.870;4.606;2024-01-27T10:25:50;6.85;;;3.70;;
68821;SDS011;55834;50.870;4.606;2024-01-27T10:28:16;7.97;;;4.07;;
68821;SDS011;55834;50.870;4.606;2024-01-27T10:30:42;6.57;;;2.97;;
68821;SDS011;55834;50.870;4.606;2024-01-27T10:33:08;8.43;;;3.03;;
68821;SDS011;55834;50.870;4.606;2024-01-27T10:35:35;8.30;;;3.65;;
68821;SDS011;55834;50.870;4.606;2024-01-27T10:38:00;6.97;;;3.13;;
68821;SDS011;55834;50.870;4.606;2024-01-27T10:40:26;10.47;;;3.37;;
68821;SDS011;55834;50.870;4.606;2024-01-27T10:43:04;6.07;;;3.83;;
68821;SDS011;55834;50.870;4.606;2024-01-27T10:48:03;8.65;;;4.82;;
68821;SDS011;55834;50.870;4.606;2024-01-27T10:50:31;7.97;;;3.05;;
68821;SDS011;55834;50.870;4.606;2024-01-27T10:53:01;13.88;;;6.28;;
68821;SDS011;55834;50.870;4.606;2024-01-27T10:55:29;8.40;;;3.65;;
68821;SDS011;55834;50.870;4.606;2024-01-27T10:57:56;10.63;;;3.30;;
68821;SDS011;55834;50.870;4.606;2024-01-27T11:00:26;6.95;;;4.00;;
68821;SDS011;55834;50.870;4.606;2024-01-27T11:02:53;10.13;;;5.38;;
68821;SDS011;55834;50.870;4.606;2024-01-27T11:05:22;13.23;;;5.25;;
68821;SDS011;55834;50.870;4.606;2024-01-27T11:07:49;8.40;;;4.80;;
68821;SDS011;55834;50.870;4.606;2024-01-27T11:10:17;7.53;;;4.75;;
68821;SDS011;55834;50.870;4.606;2024-01-27T11:12:42;5.80;;;3.65;;
68821;SDS011;55834;50.870;4.606;2024-01-27T11:15:09;5.28;;;2.95;;
68821;SDS011;55834;50.870;4.606;2024-01-27T11:17:38;5.40;;;2.60;;
68821;SDS011;55834;50.870;4.606;2024-01-27T11:20:08;11.35;;;3.70;;
68821;SDS011;55834;50.870;4.606;2024-01-27T11:22:36;6.30;;;3.55;;
68821;SDS011;55834;50.870;4.606;2024-01-27T11:27:36;7.90;;;3.85;;
68821;SDS011;55834;50.870;4.606;2024-01-27T11:30:03;9.57;;;3.95;;
68821;SDS011;55834;50.870;4.606;2024-01-27T11:32:29;6.63;;;3.50;;
68821;SDS011;55834;50.870;4.606;2024-01-27T11:34:55;10.57;;;3.50;;
68821;SDS011;55834;50.870;4.606;2024-01-27T11:37:21;9.20;;;4.13;;
68821;SDS011;55834;50.870;4.606;2024-01-27T11:39:50;5.53;;;2.80;;
68821;SDS011;55834;50.870;4.606;2024-01-27T11:42:16;9.30;;;3.13;;
68821;SDS011;55834;50.870;4.606;2024-01-27T11:44:43;10.30;;;3.90;;
68821;SDS011;55834;50.870;4.606;2024-01-27T11:47:19;11.27;;;5.30;;
68821;SDS011;55834;50.870;4.606;2024-01-27T11:49:51;12.02;;;3.95;;
68821;SDS011;55834;50.870;4.606;2024-01-27T11:52:20;9.00;;;2.92;;
68821;SDS011;55834;50.870;4.606;2024-01-27T11:54:53;12.68;;;4.22;;
68821;SDS011;55834;50.870;4.606;2024-01-27T11:57:21;7.95;;;3.08;;
68821;SDS011;55834;50.870;4.606;2024-01-27T11:59:47;5.30;;;2.40;;
68821;SDS011;55834;50.870;4.606;2024-01-27T12:02:12;8.60;;;2.97;;
68821;SDS011;55834;50.870;4.606;2024-01-27T12:04:38;7.25;;;4.25;;
68821;SDS011;55834;50.870;4.606;2024-01-27T12:07:04;5.88;;;3.08;;
68821;SDS011;55834;50.870;4.606;2024-01-27T12:09:30;8.07;;;3.05;;
68821;SDS011;55834;50.870;4.606;2024-01-27T12:11:55;5.70;;;2.93;;
68821;SDS011;55834;50.870;4.606;2024-01-27T12:14:20;7.28;;;2.83;;
68821;SDS011;55834;50.870;4.606;2024-01-27T12:16:46;6.43;;;3.28;;
68821;SDS011;55834;50.870;4.606;2024-01-27T12:19:12;4.88;;;2.33;;
68821;SDS011;55834;50.870;4.606;2024-01-27T12:21:38;9.63;;;4.05;;
68821;SDS011;55834;50.870;4.606;2024-01-27T12:24:03;5.43;;;3.22;;
68821;SDS011;55834;50.870;4.606;2024-01-27T12:26:29;9.68;;;3.53;;
68821;SDS011;55834;50.870;4.606;2024-01-27T12:28:56;5.78;;;2.72;;
68821;SDS011;55834;50.870;4.606;2024-01-27T12:31:25;9.05;;;2.25;;
68821;SDS011;55834;50.870;4.606;2024-01-27T12:33:52;8.32;;;2.05;;
68821;SDS011;55834;50.870;4.606;2024-01-27T12:36:20;10.15;;;4.10;;
68821;SDS011;55834;50.870;4.606;2024-01-27T12:38:53;8.60;;;2.95;;
68821;SDS011;55834;50.870;4.606;2024-01-27T12:41:20;6.00;;;2.33;;
68821;SDS011;55834;50.870;4.606;2024-01-27T12:43:45;4.07;;;2.45;;
68821;SDS011;55834;50.870;4.606;2024-01-27T12:46:10;9.30;;;4.00;;
68821;SDS011;55834;50.870;4.606;2024-01-27T12:48:37;9.90;;;4.15;;
68821;SDS011;55834;50.870;4.606;2024-01-27T12:51:04;13.35;;;5.10;;
68821;SDS011;55834;50.870;4.606;2024-01-27T12:53:30;13.68;;;5.20;;
68821;SDS011;55834;50.870;4.606;2024-01-27T12:55:56;4.90;;;3.15;;
68821;SDS011;55834;50.870;4.606;2024-01-27T12:58:21;9.98;;;4.07;;
68821;SDS011;55834;50.870;4.606;2024-01-27T13:00:47;12.77;;;5.30;;
68821;SDS011;55834;50.870;4.606;2024-01-27T13:03:12;10.23;;;6.38;;
68821;SDS011;55834;50.870;4.606;2024-01-27T13:05:38;9.88;;;3.95;;
68821;SDS011;55834;50.870;4.606;2024-01-27T13:08:04;12.60;;;2.75;;
68821;SDS011;55834;50.870;4.606;2024-01-27T13:10:30;5.00;;;2.20;;
68821;SDS011;55834;50.870;4.606;2024-01-27T13:12:55;7.45;;;1.98;;
68821;SDS011;55834;50.870;4.606;2024-01-27T13:15:21;5.27;;;2.37;;
68821;SDS011;55834;50.870;4.606;2024-01-27T13:17:50;6.28;;;2.75;;
68821;SDS011;55834;50.870;4.606;2024-01-27T13:20:15;9.60;;;3.20;;
68821;SDS011;55834;50.870;4.606;2024-01-27T13:22:42;4.55;;;2.42;;
68821;SDS011;55834;50.870;4.606;2024-01-27T13:25:08;4.63;;;2.10;;
68821;SDS011;55834;50.870;4.606;2024-01-27T13:27:33;5.65;;;2.55;;
68821;SDS011;55834;50.870;4.606;2024-01-27T13:29:59;5.25;;;3.28;;
68821;SDS011;55834;50.870;4.606;2024-01-27T13:32:24;6.55;;;3.08;;
68821;SDS011;55834;50.870;4.606;2024-01-27T13:34:51;7.50;;;2.45;;
68821;SDS011;55834;50.870;4.606;2024-01-27T13:37:17;7.93;;;3.92;;
68821;SDS011;55834;50.870;4.606;2024-01-27T13:39:42;8.25;;;3.65;;
68821;SDS011;55834;50.870;4.606;2024-01-27T13:42:08;4.88;;;2.22;;
68821;SDS011;55834;50.870;4.606;2024-01-27T13:44:34;7.55;;;2.80;;
68821;SDS011;55834;50.870;4.606;2024-01-27T13:49:27;3.88;;;2.00;;
68821;SDS011;55834;50.870;4.606;2024-01-27T13:51:52;5.00;;;2.03;;
68821;SDS011;55834;50.870;4.606;2024-01-27T13:54:17;9.07;;;3.77;;
68821;SDS011;55834;50.870;4.606;2024-01-27T13:56:43;4.30;;;2.20;;
68821;SDS011;55834;50.870;4.606;2024-01-27T13:59:08;5.13;;;2.33;;
68821;SDS011;55834;50.870;4.606;2024-01-27T14:01:34;7.78;;;2.63;;
68821;SDS011;55834;50.870;4.606;2024-01-27T14:03:59;4.68;;;2.63;;
68821;SDS011;55834;50.870;4.606;2024-01-27T14:06:25;6.13;;;2.53;;
68821;SDS011;55834;50.870;4.606;2024-01-27T14:08:50;9.23;;;3.35;;
68821;SDS011;55834;50.870;4.606;2024-01-27T14:11:16;7.82;;;3.03;;
68821;SDS011;55834;50.870;4.606;2024-01-27T14:13:41;5.53;;;3.20;;
68821;SDS011;55834;50.870;4.606;2024-01-27T14:16:08;6.55;;;3.08;;
68821;SDS011;55834;50.870;4.606;2024-01-27T14:18:34;8.27;;;3.15;;
68821;SDS011;55834;50.870;4.606;2024-01-27T14:20:59;7.57;;;2.77;;
68821;SDS011;55834;50.870;4.606;2024-01-27T14:23:24;5.63;;;2.15;;
68821;SDS011;55834;50.870;4.606;2024-01-27T14:25:50;11.00;;;4.03;;
68821;SDS011;55834;50.870;4.606;2024-01-27T14:28:15;8.50;;;3.05;;
68821;SDS011;55834;50.870;4.606;2024-01-27T14:30:42;11.10;;;4.40;;
68821;SDS011;55834;50.870;4.606;2024-01-27T14:33:09;11.30;;;4.15;;
68821;SDS011;55834;50.870;4.606;2024-01-27T14:35:35;6.97;;;3.83;;
68821;SDS011;55834;50.870;4.606;2024-01-27T14:38:01;16.17;;;5.03;;
68821;SDS011;55834;50.870;4.606;2024-01-27T14:40:26;6.28;;;2.42;;